Time;durP1;ratioP1;P1;durP2;ratioP2;P2;SDS_P1;SDS_P2;PMS_P1;PMS_P2;Temp;Humidity;BMP_temperature;BMP_pressure;BME280_temperature;BME280_humidity;BME280_pressure;Samples;Min_cycle;Max_cycle;Signal;HPM_P1;HPM_P2
2022/02/01 00:00:31;;;;;;;20.83;19.83;;;7.60;74.90;;;;;;4917396;29;20055;-89
2022/02/01 00:03:00;;;;;;;20.83;19.87;;;7.50;74.90;;;;;;4900724;29;20047;-89
2022/02/01 00:05:44;;;;;;;20.67;19.63;;;7.50;75.00;;;;;;4915851;29;20691;-89
2022/02/01 00:08:33;;;;;;;19.30;18.40;;;7.50;75.10;;;;;;4913808;29;20546;-89
2022/02/01 00:13:41;;;;;;;20.27;19.37;;;7.40;75.10;;;;;;4915585;29;20604;-88
2022/02/01 00:19:41;;;;;;;21.87;20.87;;;7.40;75.10;;;;;;4920555;29;20537;-90
2022/02/01 00:35:25;;;;;;;22.00;20.43;;;7.30;75.30;;;;;;4944736;28;20046;-89
2022/02/01 00:37:57;;;;;;;21.23;19.83;;;7.30;75.20;;;;;;4953745;28;20038;-89
2022/02/01 00:40:24;;;;;;;19.00;18.10;;;7.30;75.20;;;;;;4953756;29;20049;-89
2022/02/01 00:42:50;;;;;;;20.07;19.00;;;7.30;75.20;;;;;;4951288;29;20047;-89
2022/02/01 00:45:16;;;;;;;19.40;18.40;;;7.30;75.30;;;;;;4952288;28;20030;-89
2022/02/01 00:47:43;;;;;;;19.97;18.97;;;7.20;75.30;;;;;;4948329;29;20031;-88
2022/02/01 00:50:13;;;;;;;19.73;18.83;;;7.20;75.30;;;;;;4953574;29;20035;-89
2022/02/01 00:52:39;;;;;;;20.13;19.23;;;7.20;75.30;;;;;;4952206;29;20383;-88
2022/02/01 00:55:05;;;;;;;17.88;17.08;;;7.10;75.40;;;;;;4943311;29;20083;-89
2022/02/01 00:57:31;;;;;;;19.80;18.90;;;7.10;75.40;;;;;;4949258;28;20035;-89
2022/02/01 00:59:58;;;;;;;19.50;18.60;;;7.10;75.50;;;;;;4953154;29;20512;-88
2022/02/01 01:02:24;;;;;;;19.93;18.93;;;7.10;75.50;;;;;;4955217;28;20260;-89
2022/02/01 01:04:50;;;;;;;20.67;19.57;;;7.10;75.50;;;;;;4953363;29;20493;-89
2022/02/01 01:07:16;;;;;;;19.70;18.80;;;7.10;75.60;;;;;;4948662;29;20047;-89
2022/02/01 01:09:42;;;;;;;19.87;18.87;;;7.00;75.50;;;;;;4947214;29;20498;-88
2022/02/01 01:12:09;;;;;;;18.43;17.60;;;7.00;75.50;;;;;;4946630;29;20487;-89
2022/02/01 01:44:11;;;;;;;23.17;21.87;;;6.90;75.50;;;;;;4954115;28;20085;-89
2022/02/01 01:54:52;;;;;;;20.30;19.20;;;6.80;75.80;;;;;;4901383;29;20048;-89
2022/02/01 01:57:19;;;;;;;20.33;19.43;;;6.70;75.80;;;;;;4909954;29;20052;-87
2022/02/01 01:59:45;;;;;;;21.80;20.70;;;6.70;75.90;;;;;;4894608;29;20048;-89
2022/02/01 02:02:11;;;;;;;20.83;19.83;;;6.70;76.00;;;;;;4892017;29;20036;-88
2022/02/01 02:04:37;;;;;;;20.30;19.20;;;6.70;76.10;;;;;;4900722;29;20048;-89
2022/02/01 02:07:03;;;;;;;19.17;18.20;;;6.60;76.10;;;;;;4889079;29;20052;-88
2022/02/01 02:09:29;;;;;;;17.93;16.90;;;6.60;76.10;;;;;;4897891;29;20048;-89
2022/02/01 02:12:10;;;;;;;18.80;17.63;;;6.70;76.20;;;;;;4894320;29;20530;-89
2022/02/01 02:14:43;;;;;;;18.42;17.52;;;6.60;76.10;;;;;;4909781;29;20048;-89
2022/02/01 02:17:09;;;;;;;19.40;18.03;;;6.60;76.10;;;;;;4906761;29;20184;-88
2022/02/01 02:19:35;;;;;;;19.03;18.13;;;6.60;76.10;;;;;;4877426;29;20052;-88
2022/02/01 02:22:04;;;;;;;19.03;18.13;;;6.70;76.20;;;;;;4905526;29;20110;-88
2022/02/01 02:24:32;;;;;;;18.40;17.50;;;6.70;76.00;;;;;;4878409;29;20427;-89
2022/02/01 02:26:59;;;;;;;20.20;18.90;;;6.70;76.00;;;;;;4929668;29;20490;-88
2022/02/01 02:29:25;;;;;;;17.83;17.03;;;6.80;75.90;;;;;;4953925;28;20054;-88
2022/02/01 02:31:51;;;;;;;19.00;18.10;;;6.80;75.90;;;;;;4950943;28;20042;-88
2022/02/01 02:34:19;;;;;;;18.63;17.73;;;6.80;75.80;;;;;;4966321;28;20039;-88
2022/02/01 02:37:01;;;;;;;18.20;17.40;;;6.80;75.70;;;;;;4944573;29;20027;-88
2022/02/01 02:39:34;;;;;;;18.03;17.23;;;6.90;75.80;;;;;;4943369;29;20043;-88
2022/02/01 02:47:21;;;;;;;19.10;18.20;;;6.90;75.80;;;;;;4953441;28;20398;-88
2022/02/01 02:49:47;;;;;;;18.77;17.87;;;6.90;75.70;;;;;;4940822;29;20052;-88
2022/02/01 02:52:14;;;;;;;19.00;18.10;;;6.90;75.70;;;;;;4956602;28;20054;-89
2022/02/01 02:54:40;;;;;;;18.77;17.87;;;6.90;75.70;;;;;;4943362;29;20043;-88
2022/02/01 02:57:06;;;;;;;19.13;18.13;;;7.00;75.80;;;;;;4962037;28;20035;-88
2022/02/01 02:59:33;;;;;;;18.70;17.80;;;7.00;75.80;;;;;;4951837;29;20042;-88
2022/02/01 03:01:59;;;;;;;18.50;17.70;;;7.00;75.80;;;;;;4952989;28;20043;-88
2022/02/01 03:04:27;;;;;;;19.33;18.33;;;7.00;75.80;;;;;;4946143;29;20061;-89
2022/02/01 03:06:53;;;;;;;19.10;18.00;;;7.00;75.80;;;;;;4965939;28;20035;-87
2022/02/01 03:09:21;;;;;;;18.47;17.63;;;7.00;75.90;;;;;;4949158;29;20027;-88
2022/02/01 03:11:48;;;;;;;18.23;17.43;;;7.00;76.00;;;;;;4961337;28;20059;-89
2022/02/01 03:14:26;;;;;;;18.97;18.07;;;7.00;76.00;;;;;;4953179;29;20481;-89
2022/02/01 03:22:04;;;;;;;18.10;17.30;;;7.00;75.90;;;;;;4951919;29;20076;-89
2022/02/01 03:24:30;;;;;;;19.03;18.03;;;7.00;75.90;;;;;;4950867;29;20035;-89
2022/02/01 03:26:56;;;;;;;18.90;18.00;;;7.00;75.80;;;;;;4966118;28;20062;-89
2022/02/01 03:29:22;;;;;;;18.40;17.60;;;7.10;75.90;;;;;;4952186;28;20035;-88
2022/02/01 03:31:48;;;;;;;18.37;17.57;;;7.10;75.90;;;;;;4963391;28;20485;-89
2022/02/01 03:34:15;;;;;;;19.20;18.17;;;7.10;75.90;;;;;;4950422;29;20039;-88
2022/02/01 03:36:41;;;;;;;18.47;17.63;;;7.10;75.90;;;;;;4950539;29;20030;-88
2022/02/01 03:39:08;;;;;;;18.73;17.83;;;7.10;75.90;;;;;;4945567;29;20042;-88
2022/02/01 03:41:34;;;;;;;18.43;17.63;;;7.10;75.90;;;;;;4956290;29;20486;-87
2022/02/01 03:44:01;;;;;;;19.80;18.70;;;7.10;75.90;;;;;;4956509;29;20032;-88
2022/02/01 03:46:27;;;;;;;18.93;18.03;;;7.10;75.90;;;;;;4963345;28;20082;-89
2022/02/01 03:48:53;;;;;;;18.80;17.90;;;7.10;76.00;;;;;;4950469;29;20023;-88
2022/02/01 03:51:19;;;;;;;18.90;18.00;;;7.10;76.00;;;;;;4971364;28;20058;-89
2022/02/01 03:53:45;;;;;;;18.80;17.90;;;7.10;76.00;;;;;;4956190;29;20039;-89
2022/02/01 03:56:11;;;;;;;19.73;18.73;;;7.10;76.00;;;;;;4948509;29;20218;-89
2022/02/01 03:58:37;;;;;;;19.53;18.53;;;7.10;76.00;;;;;;4953291;29;20526;-87
2022/02/01 04:01:03;;;;;;;19.53;18.33;;;7.20;76.10;;;;;;4953663;28;20471;-88
2022/02/01 04:03:30;;;;;;;20.10;19.10;;;7.20;76.10;;;;;;4962181;28;20466;-88
2022/02/01 04:05:56;;;;;;;18.70;17.80;;;7.10;76.00;;;;;;4955539;28;20047;-88
2022/02/01 04:08:23;;;;;;;20.47;19.47;;;7.10;76.00;;;;;;4953213;29;20046;-88
2022/02/01 04:10:50;;;;;;;18.53;17.70;;;7.10;76.10;;;;;;4952514;28;20066;-88
2022/02/01 04:13:17;;;;;;;18.53;17.70;;;7.10;76.10;;;;;;4955427;28;20035;-88
2022/02/01 04:15:43;;;;;;;18.90;17.83;;;7.10;76.10;;;;;;4970254;28;20047;-88
2022/02/01 04:18:10;;;;;;;18.27;17.40;;;7.10;76.20;;;;;;4953612;28;20036;-88
2022/02/01 04:20:37;;;;;;;18.13;17.27;;;7.10;76.20;;;;;;4954049;29;20031;-87
2022/02/01 04:23:03;;;;;;;18.90;18.00;;;7.10;76.20;;;;;;4937670;29;20047;-89
2022/02/01 04:25:29;;;;;;;19.27;18.30;;;7.00;76.30;;;;;;4966025;28;20035;-89
2022/02/01 04:27:55;;;;;;;17.87;17.07;;;7.00;76.40;;;;;;4965589;28;20043;-89
2022/02/01 04:30:21;;;;;;;19.83;18.80;;;7.00;76.40;;;;;;4951842;28;20031;-89
2022/02/01 04:32:49;;;;;;;19.23;18.33;;;7.00;76.40;;;;;;4937641;29;20040;-89
2022/02/01 04:35:26;;;;;;;18.13;17.23;;;6.90;76.40;;;;;;4939583;29;20034;-88
2022/02/01 04:37:54;;;;;;;18.47;17.50;;;6.90;76.50;;;;;;4944128;29;20043;-89
2022/02/01 04:40:24;;;;;;;18.10;17.20;;;6.90;76.60;;;;;;4950079;29;20035;-89
2022/02/01 04:42:50;;;;;;;17.60;16.80;;;6.90;76.60;;;;;;4970109;28;20035;-89
2022/02/01 04:45:19;;;;;;;17.70;16.90;;;6.80;76.50;;;;;;4955481;28;20092;-88
2022/02/01 04:47:46;;;;;;;17.33;16.53;;;6.80;76.60;;;;;;4954271;28;20042;-88
2022/02/01 04:50:23;;;;;;;18.37;17.47;;;6.80;76.60;;;;;;4940026;29;20055;-88
2022/02/01 04:52:52;;;;;;;18.77;17.73;;;6.80;76.70;;;;;;4962799;28;20035;-88
2022/02/01 04:55:19;;;;;;;17.83;16.93;;;6.80;76.60;;;;;;4969075;28;20034;-87
2022/02/01 04:57:54;;;;;;;16.87;16.07;;;6.80;76.60;;;;;;4967090;28;20039;-88
2022/02/01 05:00:24;;;;;;;18.40;17.40;;;6.80;76.60;;;;;;4960299;28;20557;-87
2022/02/01 05:02:50;;;;;;;17.23;16.43;;;6.90;76.60;;;;;;4951753;29;20055;-87
2022/02/01 05:05:17;;;;;;;17.00;16.20;;;6.90;76.60;;;;;;4953729;29;20490;-86
2022/02/01 05:07:43;;;;;;;17.87;17.07;;;6.90;76.60;;;;;;4949409;29;20035;-87
2022/02/01 05:10:09;;;;;;;17.77;16.97;;;6.90;76.50;;;;;;4946284;29;20116;-87
2022/02/01 05:12:37;;;;;;;17.57;16.77;;;7.00;76.50;;;;;;4958913;28;20094;-87
2022/02/01 05:15:07;;;;;;;17.00;16.20;;;6.90;76.50;;;;;;4945618;28;20501;-88
2022/02/01 05:17:35;;;;;;;17.57;16.77;;;7.00;76.60;;;;;;4956325;28;20039;-82
2022/02/01 05:20:14;;;;;;;18.23;17.30;;;7.00;76.50;;;;;;4944361;29;20036;-82
2022/02/01 05:22:41;;;;;;;18.13;17.33;;;7.00;76.40;;;;;;4949409;28;20043;-82
2022/02/01 05:25:07;;;;;;;17.70;16.90;;;7.10;76.40;;;;;;4950967;28;20371;-80
2022/02/01 05:27:34;;;;;;;17.47;16.67;;;7.10;76.40;;;;;;4959433;28;20070;-81
2022/02/01 05:30:00;;;;;;;17.70;16.90;;;7.10;76.40;;;;;;4936150;29;20031;-81
2022/02/01 05:32:26;;;;;;;17.97;17.13;;;7.10;76.40;;;;;;4932924;29;20058;-81
2022/02/01 05:34:53;;;;;;;18.13;17.23;;;7.10;76.50;;;;;;4951299;28;20043;-84
2022/02/01 05:37:19;;;;;;;17.70;16.90;;;7.10;76.50;;;;;;4948332;29;20501;-84
2022/02/01 05:39:45;;;;;;;17.47;16.67;;;7.20;76.50;;;;;;4940574;29;20035;-84
2022/02/01 05:42:16;;;;;;;17.43;16.57;;;7.20;76.50;;;;;;4934831;28;20047;-83
2022/02/01 05:44:42;;;;;;;17.25;16.45;;;7.20;76.50;;;;;;4939366;29;20051;-82
2022/02/01 05:47:09;;;;;;;18.13;17.33;;;7.30;76.60;;;;;;4943920;28;20402;-84
2022/02/01 05:49:35;;;;;;;16.67;15.87;;;7.20;76.50;;;;;;4947525;29;20031;-83
2022/02/01 05:52:02;;;;;;;18.43;17.53;;;7.30;76.60;;;;;;4947823;29;20058;-84
2022/02/01 05:54:29;;;;;;;17.77;16.97;;;7.30;76.60;;;;;;4935831;29;20035;-83
2022/02/01 05:56:55;;;;;;;17.43;16.63;;;7.30;76.60;;;;;;4950020;29;20502;-83
2022/02/01 05:59:21;;;;;;;17.40;16.60;;;7.30;76.60;;;;;;4949011;28;20387;-83
2022/02/01 06:01:47;;;;;;;18.13;17.33;;;7.30;76.60;;;;;;4949719;28;20044;-83
2022/02/01 06:04:13;;;;;;;19.40;18.40;;;7.30;76.60;;;;;;4948972;29;20066;-84
2022/02/01 06:06:40;;;;;;;17.77;16.97;;;7.40;76.60;;;;;;4949707;29;20027;-84
2022/02/01 06:09:06;;;;;;;18.50;17.50;;;7.40;76.60;;;;;;4951469;29;20395;-83
2022/02/01 06:11:32;;;;;;;18.77;17.87;;;7.40;76.60;;;;;;4950711;29;20040;-84
2022/02/01 06:13:58;;;;;;;17.67;16.87;;;7.40;76.60;;;;;;4965547;28;20382;-83
2022/02/01 06:16:24;;;;;;;16.80;16.00;;;7.40;76.60;;;;;;4947868;28;20058;-84
2022/02/01 06:18:51;;;;;;;18.60;17.73;;;7.50;76.70;;;;;;4950349;29;20038;-87
2022/02/01 06:21:17;;;;;;;16.90;16.10;;;7.50;76.70;;;;;;4949143;29;20035;-86
2022/02/01 06:23:43;;;;;;;17.95;17.15;;;7.50;76.70;;;;;;4959073;28;20497;-85
2022/02/01 06:26:09;;;;;;;18.53;17.63;;;7.50;76.60;;;;;;4949011;29;20023;-88
2022/02/01 06:28:35;;;;;;;18.13;17.33;;;7.50;76.70;;;;;;4935802;29;20034;-87
2022/02/01 06:31:01;;;;;;;17.97;17.17;;;7.50;76.70;;;;;;4966081;28;20031;-87
2022/02/01 06:33:27;;;;;;;17.30;16.50;;;7.60;76.70;;;;;;4949927;28;20027;-87
2022/02/01 06:35:53;;;;;;;18.37;17.57;;;7.60;76.70;;;;;;4952292;28;20143;-87
2022/02/01 06:38:19;;;;;;;18.70;17.80;;;7.60;76.70;;;;;;4966333;28;20042;-87
2022/02/01 06:40:46;;;;;;;18.37;17.57;;;7.60;76.70;;;;;;4950942;29;20038;-87
2022/02/01 06:43:13;;;;;;;17.87;17.07;;;7.60;76.70;;;;;;4952885;29;20046;-87
2022/02/01 06:45:40;;;;;;;18.23;17.43;;;7.70;76.80;;;;;;4952755;28;20494;-88
2022/02/01 06:48:06;;;;;;;18.50;17.63;;;7.70;76.80;;;;;;4940076;29;20375;-87
2022/02/01 06:50:33;;;;;;;18.70;17.80;;;7.70;76.80;;;;;;4953498;29;20054;-86
2022/02/01 06:53:02;;;;;;;17.97;17.17;;;7.70;76.80;;;;;;4951471;29;20024;-87
2022/02/01 06:55:59;;;;;;;17.83;17.03;;;7.70;76.80;;;;;;4952024;29;20024;-87
2022/02/01 06:58:17;;;;;;;18.40;17.50;;;7.80;76.80;;;;;;4956681;28;20035;-88
2022/02/01 07:00:43;;;;;;;18.33;17.53;;;7.80;76.90;;;;;;4952723;28;20043;-87
2022/02/01 07:03:09;;;;;;;18.97;17.97;;;7.80;76.90;;;;;;4951426;29;20051;-87
2022/02/01 07:05:36;;;;;;;17.52;16.73;;;7.80;76.80;;;;;;4952386;29;20335;-87
2022/02/01 07:08:02;;;;;;;18.57;17.67;;;7.90;76.90;;;;;;4952073;29;20046;-87
2022/02/01 07:10:28;;;;;;;19.23;17.80;;;7.90;76.90;;;;;;4952543;29;20028;-86
2022/02/01 07:12:54;;;;;;;18.40;17.60;;;7.90;76.90;;;;;;4952109;29;20019;-86
2022/02/01 07:15:20;;;;;;;19.40;18.37;;;7.90;76.80;;;;;;4966040;28;20046;-88
2022/02/01 07:17:54;;;;;;;18.73;17.83;;;8.00;76.90;;;;;;4950574;29;20039;-90
2022/02/01 07:20:20;;;;;;;17.60;16.80;;;8.00;76.90;;;;;;4952556;29;20457;-93
2022/02/01 07:22:48;;;;;;;19.10;18.10;;;8.00;76.90;;;;;;4966356;28;20055;-89
2022/02/01 07:25:23;;;;;;;19.25;18.35;;;8.00;76.90;;;;;;4966343;28;20050;-88
2022/02/01 07:27:50;;;;;;;18.03;17.23;;;8.00;76.90;;;;;;4935638;29;20047;-90
2022/02/01 07:30:18;;;;;;;18.23;17.42;;;8.00;76.90;;;;;;4948585;28;20036;-90
2022/02/01 07:32:44;;;;;;;18.10;17.30;;;8.00;76.90;;;;;;4952659;29;20031;-92
2022/02/01 07:35:10;;;;;;;18.20;17.40;;;8.10;76.90;;;;;;4953088;28;20058;-93
2022/02/01 07:37:36;;;;;;;19.53;18.53;;;8.10;77.00;;;;;;4949311;29;20035;-89
2022/02/01 07:40:05;;;;;;;18.23;17.43;;;8.10;77.00;;;;;;4950199;29;20038;-90
2022/02/01 07:42:31;;;;;;;18.30;17.50;;;8.10;77.00;;;;;;4965424;28;20049;-92
2022/02/01 07:45:02;;;;;;;18.23;17.42;;;8.10;77.00;;;;;;4952145;29;20483;-90
2022/02/01 07:47:28;;;;;;;;;;;8.10;77.00;;;;;;4955122;28;20157;-93
2022/02/01 07:49:54;;;;;;;18.37;17.47;;;8.10;77.00;;;;;;4954380;29;19910;-92
2022/02/01 07:52:20;;;;;;;18.17;17.37;;;8.20;76.90;;;;;;4953471;29;20506;-93
2022/02/01 07:54:46;;;;;;;18.43;17.63;;;8.20;76.90;;;;;;4950686;29;20039;-90
2022/02/01 07:57:12;;;;;;;18.08;17.27;;;8.20;77.00;;;;;;4966527;28;20040;-90
2022/02/01 07:59:38;;;;;;;18.20;17.40;;;8.20;77.00;;;;;;4954910;29;20042;-92
2022/02/01 08:02:05;;;;;;;19.55;18.27;;;8.20;77.00;;;;;;4968828;28;20051;-90
2022/02/01 08:04:35;;;;;;;18.58;17.70;;;8.20;77.10;;;;;;4968007;28;20035;-92
2022/02/01 08:07:01;;;;;;;17.98;17.13;;;8.30;77.10;;;;;;4952659;29;20034;-91
2022/02/01 08:09:39;;;;;;;17.83;17.02;;;8.30;77.10;;;;;;4968823;28;20042;-91
2022/02/01 08:12:16;;;;;;;18.13;17.33;;;8.30;77.10;;;;;;4951374;29;20494;-89
2022/02/01 08:20:05;;;;;;;18.50;17.65;;;8.40;77.20;;;;;;4877370;29;20606;-88
2022/02/01 08:25:00;;;;;;;18.67;17.77;;;8.40;77.20;;;;;;4848932;29;20555;-86
2022/02/01 08:27:26;;;;;;;19.02;18.02;;;8.50;77.30;;;;;;4861092;29;20045;-86
2022/02/01 08:29:52;;;;;;;18.27;17.38;;;8.50;77.10;;;;;;4860655;29;20065;-89
2022/02/01 08:32:18;;;;;;;18.35;17.55;;;8.60;77.10;;;;;;4861856;29;20428;-89
2022/02/01 08:34:45;;;;;;;20.75;19.20;;;8.60;77.10;;;;;;4879196;29;20053;-92
2022/02/01 08:37:11;;;;;;;17.98;17.08;;;8.60;77.10;;;;;;4877685;29;20496;-92
2022/02/01 08:39:37;;;;;;;18.48;17.63;;;8.60;77.10;;;;;;4875946;29;20033;-91
2022/02/01 08:42:03;;;;;;;17.95;17.15;;;8.70;77.20;;;;;;4862172;29;20119;-92
2022/02/01 08:44:30;;;;;;;18.52;17.58;;;8.70;77.20;;;;;;4878831;29;20044;-91
2022/02/01 08:46:57;;;;;;;18.67;17.77;;;8.70;77.20;;;;;;4874987;29;20044;-91
2022/02/01 08:49:23;;;;;;;18.60;17.73;;;8.70;77.20;;;;;;4845163;29;20532;-90
2022/02/01 08:51:59;;;;;;;17.20;16.40;;;8.80;77.30;;;;;;4873518;29;20057;-86
2022/02/01 08:54:27;;;;;;;19.08;18.17;;;8.80;77.30;;;;;;4866706;29;20039;-88
2022/02/01 08:59:38;;;;;;;18.85;17.95;;;8.90;77.30;;;;;;4965176;28;20112;-87
2022/02/01 09:02:05;;;;;;;18.30;17.50;;;8.90;77.30;;;;;;4951278;28;20058;-86
2022/02/01 09:04:31;;;;;;;19.80;18.80;;;8.90;77.30;;;;;;4951045;29;20030;-87
2022/02/01 09:06:58;;;;;;;19.23;18.33;;;8.90;77.30;;;;;;4934958;29;20039;-86
2022/02/01 09:09:26;;;;;;;19.38;18.40;;;9.00;77.30;;;;;;4954256;29;20035;-87
2022/02/01 09:11:52;;;;;;;20.25;18.98;;;9.00;77.40;;;;;;4951828;29;20047;-87
2022/02/01 09:14:18;;;;;;;19.52;18.63;;;9.10;77.40;;;;;;4953498;29;20430;-88
2022/02/01 09:16:44;;;;;;;18.65;17.75;;;9.10;77.30;;;;;;4952106;28;20039;-88
2022/02/01 09:19:10;;;;;;;19.92;19.02;;;9.20;77.40;;;;;;4951905;29;20055;-86
2022/02/01 09:21:37;;;;;;;18.73;17.85;;;9.20;77.30;;;;;;4961826;28;20038;-86
2022/02/01 09:24:03;;;;;;;19.05;18.15;;;9.30;77.30;;;;;;4935516;29;20036;-85
2022/02/01 09:26:29;;;;;;;18.67;17.77;;;9.30;77.20;;;;;;4954400;29;20054;-86
2022/02/01 09:28:55;;;;;;;20.08;18.85;;;9.40;77.30;;;;;;4955573;28;20401;-85
2022/02/01 09:31:22;;;;;;;18.85;17.95;;;9.40;77.30;;;;;;4950307;28;20039;-85
2022/02/01 09:33:48;;;;;;;18.80;17.90;;;9.50;77.30;;;;;;4953368;28;20047;-87
2022/02/01 09:36:15;;;;;;;18.67;17.77;;;9.50;77.20;;;;;;4949713;28;20060;-86
2022/02/01 09:38:42;;;;;;;19.85;18.95;;;9.50;77.20;;;;;;4952486;29;20028;-86
2022/02/01 09:41:08;;;;;;;19.35;18.45;;;9.60;78.00;;;;;;4953162;28;20434;-85
2022/02/01 09:43:34;;;;;;;19.35;18.45;;;9.70;77.20;;;;;;4951144;29;20039;-85
2022/02/01 09:46:00;;;;;;;19.20;18.30;;;9.80;77.10;;;;;;4964568;28;20057;-85
2022/02/01 09:48:27;;;;;;;18.98;18.05;;;9.80;77.10;;;;;;4964702;28;20031;-83
2022/02/01 09:50:53;;;;;;;19.15;18.25;;;9.90;77.10;;;;;;4935323;29;20533;-84
2022/02/01 09:53:20;;;;;;;20.40;19.30;;;9.90;77.00;;;;;;4953244;29;20058;-85
2022/02/01 09:55:49;;;;;;;19.33;18.42;;;10.00;77.00;;;;;;4952269;29;20482;-86
2022/02/01 09:58:15;;;;;;;19.30;18.40;;;10.00;77.00;;;;;;4947694;29;20035;-84
2022/02/01 10:00:51;;;;;;;20.23;19.23;;;10.10;77.00;;;;;;4950552;29;20028;-87
2022/02/01 10:03:18;;;;;;;19.58;18.67;;;10.10;77.10;;;;;;4935626;29;20047;-86
2022/02/01 10:06:02;;;;;;;20.52;19.33;;;10.10;77.00;;;;;;4944420;29;20394;-87
2022/02/01 10:08:28;;;;;;;21.40;19.70;;;10.10;77.00;;;;;;4953063;29;20042;-87
2022/02/01 10:10:55;;;;;;;19.27;18.02;;;10.20;77.10;;;;;;4947962;28;20489;-89
2022/02/01 10:13:22;;;;;;;19.38;18.48;;;10.20;77.10;;;;;;4948893;29;20039;-85
2022/02/01 10:16:02;;;;;;;20.60;19.60;;;10.20;77.10;;;;;;4945360;28;20386;-87
2022/02/01 10:18:33;;;;;;;19.50;18.60;;;10.20;77.10;;;;;;4957738;28;20046;-86
2022/02/01 10:21:13;;;;;;;19.45;18.55;;;10.30;77.10;;;;;;4958681;28;20047;-87
2022/02/01 10:23:41;;;;;;;20.60;19.48;;;10.30;77.10;;;;;;4950712;29;20062;-86
2022/02/01 10:26:08;;;;;;;19.15;18.25;;;10.30;77.20;;;;;;4951111;29;20387;-87
2022/02/01 10:28:47;;;;;;;19.38;18.48;;;10.30;77.20;;;;;;4951518;29;20102;-86
2022/02/01 10:31:21;;;;;;;19.75;18.85;;;10.30;77.20;;;;;;4951718;28;20043;-86
2022/02/01 10:36:17;;;;;;;19.40;18.50;;;10.30;77.20;;;;;;4952648;28;20057;-88
2022/02/01 10:38:43;;;;;;;19.05;18.15;;;10.40;77.20;;;;;;4949749;29;20030;-85
2022/02/01 10:41:14;;;;;;;18.95;18.05;;;10.40;77.30;;;;;;4972215;28;20031;-85
2022/02/01 10:43:40;;;;;;;21.00;20.00;;;10.40;77.30;;;;;;4950624;28;20039;-83
2022/02/01 10:46:10;;;;;;;20.30;19.35;;;10.40;77.30;;;;;;4950235;28;20035;-84
2022/02/01 10:48:36;;;;;;;20.08;19.17;;;10.40;77.30;;;;;;4965055;28;20030;-84
2022/02/01 10:51:12;;;;;;;19.38;18.48;;;10.50;78.00;;;;;;4949861;29;20047;-85
2022/02/01 10:53:38;;;;;;;20.27;19.38;;;10.50;77.20;;;;;;4937362;29;20179;-84
2022/02/01 10:56:06;;;;;;;19.08;18.17;;;10.50;77.20;;;;;;4950720;29;20035;-85
2022/02/01 10:58:32;;;;;;;19.83;18.92;;;10.60;77.20;;;;;;4951828;28;20035;-85
2022/02/01 11:00:59;;;;;;;19.60;18.70;;;10.60;77.20;;;;;;4930770;28;20051;-86
2022/02/01 11:03:25;;;;;;;20.52;19.52;;;10.60;77.20;;;;;;4952033;29;20039;-86
2022/02/01 11:05:52;;;;;;;20.17;19.27;;;10.70;77.30;;;;;;4917875;29;20052;-86
2022/02/01 11:08:29;;;;;;;19.77;18.88;;;10.70;77.20;;;;;;4952747;29;20054;-83
2022/02/01 11:10:56;;;;;;;20.10;19.20;;;10.70;77.10;;;;;;4941748;29;20043;-84
2022/02/01 11:13:23;;;;;;;19.90;18.90;;;10.80;77.20;;;;;;4960125;28;20035;-87
2022/02/01 11:16:00;;;;;;;19.70;18.80;;;10.80;77.10;;;;;;4949883;28;20043;-87
2022/02/01 11:18:27;;;;;;;20.40;19.50;;;10.80;77.20;;;;;;4944049;29;20031;-88
2022/02/01 11:21:02;;;;;;;19.67;18.67;;;10.80;77.10;;;;;;4948794;28;20054;-88
2022/02/01 11:23:34;;;;;;;20.90;19.90;;;10.80;77.10;;;;;;4952361;29;20490;-88
2022/02/01 11:26:08;;;;;;;21.30;20.20;;;10.90;77.10;;;;;;4934009;29;20038;-84
2022/02/01 11:31:32;;;;;;;20.55;19.60;;;10.90;77.10;;;;;;4900118;29;20137;-84
2022/02/01 11:33:58;;;;;;;21.15;20.15;;;11.00;77.10;;;;;;4896335;29;20032;-89
2022/02/01 11:36:24;;;;;;;20.38;19.48;;;11.00;77.10;;;;;;4900963;29;20043;-85
2022/02/01 11:39:06;;;;;;;19.52;18.63;;;11.00;77.10;;;;;;4900279;29;20044;-87
2022/02/01 11:41:34;;;;;;;20.10;19.13;;;11.00;77.00;;;;;;4908842;29;20043;-85
2022/02/01 11:44:11;;;;;;;20.08;19.17;;;11.10;77.10;;;;;;4884984;29;20055;-85
2022/02/01 11:46:37;;;;;;;20.30;19.40;;;11.10;77.00;;;;;;4882072;29;20052;-86
2022/02/01 11:49:04;;;;;;;19.80;18.90;;;11.10;77.00;;;;;;4912174;29;20036;-87
2022/02/01 11:51:31;;;;;;;19.83;18.92;;;11.10;77.00;;;;;;4914615;29;20040;-89
2022/02/01 11:53:58;;;;;;;19.85;18.75;;;11.20;77.10;;;;;;4897036;29;20040;-85
2022/02/01 11:56:32;;;;;;;19.50;18.60;;;11.20;77.00;;;;;;4905686;29;20044;-86
2022/02/01 11:59:00;;;;;;;20.20;19.30;;;11.30;77.00;;;;;;4913658;29;20471;-85
2022/02/01 12:01:37;;;;;;;19.83;18.92;;;11.30;77.00;;;;;;4911508;29;20084;-85
2022/02/01 12:04:15;;;;;;;20.50;19.33;;;11.40;77.00;;;;;;4900263;29;20462;-86
2022/02/01 12:06:46;;;;;;;19.83;18.92;;;11.40;77.00;;;;;;4923438;29;21268;-86
2022/02/01 12:09:20;;;;;;;20.77;19.83;;;11.50;77.10;;;;;;4954084;29;20056;-86
2022/02/01 12:11:47;;;;;;;21.30;20.30;;;11.60;77.00;;;;;;4938699;29;20031;-88
2022/02/01 12:14:13;;;;;;;20.55;19.55;;;11.70;76.90;;;;;;4955191;29;20478;-86
2022/02/01 12:16:47;;;;;;;21.40;20.20;;;11.80;77.00;;;;;;4952060;28;20043;-87
2022/02/01 12:19:33;;;;;;;21.05;20.05;;;11.90;77.00;;;;;;4970201;28;20039;-86
2022/02/01 12:22:40;;;;;;;20.92;19.92;;;12.00;76.90;;;;;;4954671;29;20027;-85
2022/02/01 12:25:07;;;;;;;20.25;19.35;;;12.10;76.70;;;;;;4966056;28;20032;-85
2022/02/01 12:27:35;;;;;;;21.67;20.67;;;12.10;76.70;;;;;;4957022;28;20038;-85
2022/02/01 12:30:01;;;;;;;20.92;19.92;;;12.10;76.80;;;;;;4968005;28;20024;-86
2022/02/01 12:32:27;;;;;;;21.92;20.85;;;12.20;76.80;;;;;;4951242;28;20502;-84
2022/02/01 12:34:53;;;;;;;22.67;21.42;;;12.20;76.70;;;;;;4953725;28;20043;-83
2022/02/01 12:37:23;;;;;;;1999.90;999.90;;;12.30;76.70;;;;;;4953444;28;20509;-82
2022/02/01 12:40:03;;;;;;;1999.90;999.90;;;12.30;76.70;;;;;;4943495;29;20474;-82
2022/02/01 12:42:38;;;;;;;1999.90;999.90;;;12.30;76.60;;;;;;4952966;29;20031;-88
2022/02/01 12:48:00;;;;;;;1999.90;999.90;;;12.30;76.60;;;;;;4954544;28;20027;-85
2022/02/01 12:50:26;;;;;;;1999.90;999.90;;;12.30;76.70;;;;;;4954479;29;20059;-86
2022/02/01 12:53:01;;;;;;;1999.90;999.90;;;12.30;76.70;;;;;;4953772;29;20043;-85
2022/02/01 12:55:28;;;;;;;1999.90;999.90;;;12.20;76.80;;;;;;4962153;28;20622;-85
2022/02/01 12:57:54;;;;;;;1999.90;999.90;;;12.20;76.80;;;;;;4955509;28;20027;-86
2022/02/01 13:00:22;;;;;;;1999.90;999.90;;;12.20;76.90;;;;;;4937505;28;20055;-87
2022/02/01 13:02:52;;;;;;;1999.90;999.90;;;12.20;76.80;;;;;;4954600;29;20045;-86
2022/02/01 13:05:20;;;;;;;1999.90;999.90;;;12.20;76.80;;;;;;4954303;29;20039;-85
2022/02/01 13:21:06;;;;;;;1999.90;999.90;;;12.20;76.70;;;;;;4950417;28;20035;-87
2022/02/01 13:23:39;;;;;;;1999.90;999.90;;;12.20;76.70;;;;;;4952940;29;20043;-85
2022/02/01 13:26:07;;;;;;;1999.90;999.90;;;12.30;76.70;;;;;;4937824;29;20051;-87
2022/02/01 13:28:33;;;;;;;1999.90;999.90;;;12.30;76.60;;;;;;4944413;29;20038;-86
2022/02/01 13:31:07;;;;;;;1999.90;999.90;;;12.40;76.60;;;;;;4946493;28;20062;-85
2022/02/01 13:33:47;;;;;;;1999.90;999.90;;;12.40;76.60;;;;;;4963990;28;20399;-86
2022/02/01 13:36:13;;;;;;;1999.90;999.90;;;12.50;76.40;;;;;;4952645;28;20038;-86
2022/02/01 13:38:56;;;;;;;1999.90;999.90;;;12.50;76.40;;;;;;4953180;29;20023;-85
2022/02/01 13:41:24;;;;;;;1999.90;999.90;;;12.50;76.30;;;;;;4939831;29;20387;-85
2022/02/01 13:43:51;;;;;;;1999.90;999.90;;;12.60;76.20;;;;;;4948551;29;20044;-87
2022/02/01 13:46:24;;;;;;;1999.90;999.90;;;12.60;76.20;;;;;;4947659;28;20038;-88
2022/02/01 13:49:00;;;;;;;1999.90;999.90;;;12.60;76.30;;;;;;4966271;28;20031;-85
2022/02/01 13:51:26;;;;;;;1999.90;999.90;;;12.60;76.30;;;;;;4956198;28;20491;-85
2022/02/01 13:53:59;;;;;;;1999.90;999.90;;;12.60;76.20;;;;;;4953495;28;20034;-86
2022/02/01 13:56:30;;;;;;;1999.90;999.90;;;12.60;76.30;;;;;;4954217;29;20031;-85
2022/02/01 13:59:19;;;;;;;1999.90;999.90;;;12.70;76.30;;;;;;4957291;28;20040;-83
2022/02/01 14:01:45;;;;;;;1999.90;999.90;;;12.80;76.20;;;;;;4951343;28;20486;-85
2022/02/01 14:04:21;;;;;;;1999.90;999.90;;;12.80;76.10;;;;;;4964210;28;20039;-83
2022/02/01 14:06:55;;;;;;;1999.90;999.90;;;12.80;76.00;;;;;;4948671;29;20038;-84
2022/02/01 14:28:32;;;;;;;1999.90;999.90;;;13.10;75.80;;;;;;4946199;29;20080;-86
2022/02/01 14:33:57;;;;;;;1999.90;999.90;;;13.00;75.70;;;;;;4961030;28;20494;-87
2022/02/01 14:36:27;;;;;;;1999.90;999.90;;;13.00;75.70;;;;;;4952001;28;20050;-88
2022/02/01 14:46:45;;;;;;;1999.90;999.90;;;13.10;75.80;;;;;;4941363;28;20051;-88